sensor_id;sensor_type;location;lat;lon;timestamp;P1;durP1;ratioP1;P2;durP2;ratioP2
71888;SDS011;59762;49.998;14.858;2022-12-07T00:02:17;0.95;;;0.57;;
71888;SDS011;59762;49.998;14.858;2022-12-07T00:04:43;0.93;;;0.93;;
71888;SDS011;59762;49.998;14.858;2022-12-07T00:07:08;0.70;;;0.20;;
71888;SDS011;59762;49.998;14.858;2022-12-07T00:09:34;5.30;;;1.15;;
71888;SDS011;59762;49.998;14.858;2022-12-07T00:12:00;1.45;;;1.00;;
71888;SDS011;59762;49.998;14.858;2022-12-07T00:14:25;0.57;;;0.57;;
71888;SDS011;59762;49.998;14.858;2022-12-07T00:16:51;0.60;;;0.52;;
71888;SDS011;59762;49.998;14.858;2022-12-07T00:19:18;0.52;;;0.52;;
71888;SDS011;59762;49.998;14.858;2022-12-07T00:21:44;1.10;;;1.00;;
71888;SDS011;59762;49.998;14.858;2022-12-07T00:24:10;0.22;;;0.22;;
71888;SDS011;59762;49.998;14.858;2022-12-07T00:26:37;0.30;;;0.30;;
71888;SDS011;59762;49.998;14.858;2022-12-07T00:29:09;1.08;;;0.82;;
71888;SDS011;59762;49.998;14.858;2022-12-07T00:31:40;0.95;;;0.75;;
71888;SDS011;59762;49.998;14.858;2022-12-07T00:34:06;1.67;;;1.10;;
71888;SDS011;59762;49.998;14.858;2022-12-07T00:36:32;1.23;;;0.73;;
71888;SDS011;59762;49.998;14.858;2022-12-07T00:38:58;0.35;;;0.35;;
71888;SDS011;59762;49.998;14.858;2022-12-07T00:41:25;0.88;;;0.60;;
71888;SDS011;59762;49.998;14.858;2022-12-07T00:43:52;0.40;;;0.40;;
71888;SDS011;59762;49.998;14.858;2022-12-07T00:46:19;0.70;;;0.70;;
71888;SDS011;59762;49.998;14.858;2022-12-07T00:48:45;0.57;;;0.57;;
71888;SDS011;59762;49.998;14.858;2022-12-07T00:51:13;0.20;;;0.20;;
71888;SDS011;59762;49.998;14.858;2022-12-07T00:53:40;1.25;;;1.00;;
71888;SDS011;59762;49.998;14.858;2022-12-07T00:56:16;4.43;;;1.30;;
71888;SDS011;59762;49.998;14.858;2022-12-07T00:58:44;0.45;;;0.40;;
71888;SDS011;59762;49.998;14.858;2022-12-07T01:01:15;0.22;;;0.22;;
71888;SDS011;59762;49.998;14.858;2022-12-07T01:03:40;0.60;;;0.43;;
71888;SDS011;59762;49.998;14.858;2022-12-07T01:06:06;0.95;;;0.95;;
71888;SDS011;59762;49.998;14.858;2022-12-07T01:08:32;0.80;;;0.77;;
71888;SDS011;59762;49.998;14.858;2022-12-07T01:11:09;0.40;;;0.40;;
71888;SDS011;59762;49.998;14.858;2022-12-07T01:13:37;6.10;;;0.80;;
71888;SDS011;59762;49.998;14.858;2022-12-07T01:16:03;1.45;;;1.35;;
71888;SDS011;59762;49.998;14.858;2022-12-07T01:18:31;2.63;;;1.35;;
71888;SDS011;59762;49.998;14.858;2022-12-07T01:23:24;1.58;;;1.10;;
71888;SDS011;59762;49.998;14.858;2022-12-07T01:25:56;0.77;;;0.60;;
71888;SDS011;59762;49.998;14.858;2022-12-07T01:28:23;0.82;;;0.82;;
71888;SDS011;59762;49.998;14.858;2022-12-07T01:31:03;1.55;;;1.45;;
71888;SDS011;59762;49.998;14.858;2022-12-07T01:33:32;2.33;;;1.25;;
71888;SDS011;59762;49.998;14.858;2022-12-07T01:36:02;0.60;;;0.47;;
71888;SDS011;59762;49.998;14.858;2022-12-07T01:38:49;1.77;;;1.67;;
71888;SDS011;59762;49.998;14.858;2022-12-07T01:41:17;1.25;;;0.43;;
71888;SDS011;59762;49.998;14.858;2022-12-07T01:49:21;1.00;;;1.00;;
71888;SDS011;59762;49.998;14.858;2022-12-07T01:52:06;0.80;;;0.63;;
71888;SDS011;59762;49.998;14.858;2022-12-07T01:54:44;1.77;;;0.70;;
71888;SDS011;59762;49.998;14.858;2022-12-07T01:57:13;5.30;;;1.88;;
71888;SDS011;59762;49.998;14.858;2022-12-07T01:59:41;0.50;;;0.40;;
71888;SDS011;59762;49.998;14.858;2022-12-07T02:02:10;2.22;;;0.80;;
71888;SDS011;59762;49.998;14.858;2022-12-07T02:04:43;1.38;;;1.27;;
71888;SDS011;59762;49.998;14.858;2022-12-07T02:07:09;2.22;;;1.52;;
71888;SDS011;59762;49.998;14.858;2022-12-07T02:09:35;1.42;;;0.98;;
71888;SDS011;59762;49.998;14.858;2022-12-07T02:12:01;1.73;;;1.42;;
71888;SDS011;59762;49.998;14.858;2022-12-07T02:14:27;3.58;;;0.80;;
71888;SDS011;59762;49.998;14.858;2022-12-07T02:17:00;0.40;;;0.40;;
71888;SDS011;59762;49.998;14.858;2022-12-07T02:30:50;1.90;;;1.40;;
71888;SDS011;59762;49.998;14.858;2022-12-07T02:33:28;5.90;;;1.27;;
71888;SDS011;59762;49.998;14.858;2022-12-07T02:35:59;4.03;;;1.70;;
71888;SDS011;59762;49.998;14.858;2022-12-07T02:38:40;1.20;;;0.93;;
71888;SDS011;59762;49.998;14.858;2022-12-07T02:41:16;1.10;;;1.02;;
71888;SDS011;59762;49.998;14.858;2022-12-07T02:43:49;3.65;;;3.13;;
71888;SDS011;59762;49.998;14.858;2022-12-07T02:46:29;11.10;;;1.95;;
71888;SDS011;59762;49.998;14.858;2022-12-07T02:49:00;3.33;;;1.05;;
71888;SDS011;59762;49.998;14.858;2022-12-07T02:51:29;0.82;;;0.70;;
71888;SDS011;59762;49.998;14.858;2022-12-07T02:53:56;2.38;;;1.15;;
71888;SDS011;59762;49.998;14.858;2022-12-07T03:07:58;1.73;;;1.63;;
71888;SDS011;59762;49.998;14.858;2022-12-07T03:16:07;1.42;;;1.33;;
71888;SDS011;59762;49.998;14.858;2022-12-07T03:18:44;3.38;;;1.35;;
71888;SDS011;59762;49.998;14.858;2022-12-07T03:21:27;2.08;;;0.75;;
71888;SDS011;59762;49.998;14.858;2022-12-07T03:24:03;2.60;;;1.65;;
71888;SDS011;59762;49.998;14.858;2022-12-07T03:26:35;2.03;;;1.40;;
71888;SDS011;59762;49.998;14.858;2022-12-07T03:29:08;3.63;;;1.83;;
71888;SDS011;59762;49.998;14.858;2022-12-07T03:31:43;2.22;;;1.27;;
71888;SDS011;59762;49.998;14.858;2022-12-07T03:34:19;2.50;;;1.65;;
71888;SDS011;59762;49.998;14.858;2022-12-07T03:37:00;4.70;;;0.60;;
71888;SDS011;59762;49.998;14.858;2022-12-07T03:39:29;0.82;;;0.82;;
71888;SDS011;59762;49.998;14.858;2022-12-07T03:42:12;3.53;;;1.52;;
71888;SDS011;59762;49.998;14.858;2022-12-07T03:44:38;2.38;;;1.48;;
71888;SDS011;59762;49.998;14.858;2022-12-07T03:49:49;2.70;;;1.33;;
71888;SDS011;59762;49.998;14.858;2022-12-07T03:55:13;1.77;;;1.42;;
71888;SDS011;59762;49.998;14.858;2022-12-07T03:57:44;3.10;;;1.83;;
71888;SDS011;59762;49.998;14.858;2022-12-07T04:00:15;2.53;;;0.90;;
71888;SDS011;59762;49.998;14.858;2022-12-07T04:02:41;0.93;;;0.88;;
71888;SDS011;59762;49.998;14.858;2022-12-07T04:05:08;1.40;;;1.27;;
71888;SDS011;59762;49.998;14.858;2022-12-07T04:07:34;1.30;;;1.20;;
71888;SDS011;59762;49.998;14.858;2022-12-07T04:10:00;2.75;;;1.95;;
71888;SDS011;59762;49.998;14.858;2022-12-07T04:12:25;3.30;;;0.63;;
71888;SDS011;59762;49.998;14.858;2022-12-07T04:14:51;1.17;;;0.80;;
71888;SDS011;59762;49.998;14.858;2022-12-07T04:17:17;1.33;;;1.05;;
71888;SDS011;59762;49.998;14.858;2022-12-07T04:19:42;2.17;;;0.93;;
71888;SDS011;59762;49.998;14.858;2022-12-07T04:22:08;0.80;;;0.80;;
71888;SDS011;59762;49.998;14.858;2022-12-07T04:24:34;1.35;;;1.05;;
71888;SDS011;59762;49.998;14.858;2022-12-07T04:27:00;1.48;;;0.90;;
71888;SDS011;59762;49.998;14.858;2022-12-07T04:29:26;1.83;;;1.17;;
71888;SDS011;59762;49.998;14.858;2022-12-07T04:31:52;1.60;;;1.50;;
71888;SDS011;59762;49.998;14.858;2022-12-07T04:34:17;3.30;;;1.35;;
71888;SDS011;59762;49.998;14.858;2022-12-07T04:36:44;0.95;;;0.85;;
71888;SDS011;59762;49.998;14.858;2022-12-07T04:39:44;3.17;;;1.33;;
71888;SDS011;59762;49.998;14.858;2022-12-07T04:42:03;7.22;;;1.83;;
71888;SDS011;59762;49.998;14.858;2022-12-07T04:44:29;9.45;;;1.85;;
71888;SDS011;59762;49.998;14.858;2022-12-07T04:46:55;12.95;;;1.15;;
71888;SDS011;59762;49.998;14.858;2022-12-07T04:49:22;3.25;;;1.83;;
71888;SDS011;59762;49.998;14.858;2022-12-07T04:51:49;2.88;;;1.25;;
71888;SDS011;59762;49.998;14.858;2022-12-07T04:54:15;19.88;;;5.45;;
71888;SDS011;59762;49.998;14.858;2022-12-07T04:56:41;41.47;;;15.13;;
71888;SDS011;59762;49.998;14.858;2022-12-07T04:59:07;54.80;;;17.17;;
71888;SDS011;59762;49.998;14.858;2022-12-07T05:01:33;42.35;;;12.80;;
71888;SDS011;59762;49.998;14.858;2022-12-07T05:03:59;16.83;;;9.60;;
71888;SDS011;59762;49.998;14.858;2022-12-07T05:06:25;23.42;;;9.90;;
71888;SDS011;59762;49.998;14.858;2022-12-07T05:08:51;45.65;;;15.15;;
71888;SDS011;59762;49.998;14.858;2022-12-07T05:11:17;9.10;;;6.18;;
71888;SDS011;59762;49.998;14.858;2022-12-07T05:14:02;10.85;;;5.07;;
71888;SDS011;59762;49.998;14.858;2022-12-07T05:16:29;13.10;;;6.72;;
71888;SDS011;59762;49.998;14.858;2022-12-07T05:18:55;9.35;;;4.78;;
71888;SDS011;59762;49.998;14.858;2022-12-07T05:21:21;4.22;;;3.75;;
71888;SDS011;59762;49.998;14.858;2022-12-07T05:23:46;6.68;;;3.78;;
71888;SDS011;59762;49.998;14.858;2022-12-07T05:26:12;3.47;;;1.40;;
71888;SDS011;59762;49.998;14.858;2022-12-07T05:28:37;2.53;;;1.90;;
71888;SDS011;59762;49.998;14.858;2022-12-07T05:31:03;2.50;;;1.95;;
71888;SDS011;59762;49.998;14.858;2022-12-07T05:33:29;2.78;;;2.58;;
71888;SDS011;59762;49.998;14.858;2022-12-07T05:35:55;8.02;;;4.30;;
71888;SDS011;59762;49.998;14.858;2022-12-07T05:38:20;2.42;;;1.92;;
71888;SDS011;59762;49.998;14.858;2022-12-07T05:40:46;1.80;;;1.70;;
71888;SDS011;59762;49.998;14.858;2022-12-07T05:43:12;6.82;;;3.08;;
71888;SDS011;59762;49.998;14.858;2022-12-07T05:45:37;3.33;;;1.70;;
71888;SDS011;59762;49.998;14.858;2022-12-07T05:48:03;5.70;;;2.95;;
71888;SDS011;59762;49.998;14.858;2022-12-07T05:50:29;2.17;;;2.00;;
71888;SDS011;59762;49.998;14.858;2022-12-07T05:52:54;3.63;;;2.03;;
71888;SDS011;59762;49.998;14.858;2022-12-07T05:55:20;3.85;;;2.92;;
71888;SDS011;59762;49.998;14.858;2022-12-07T05:57:45;2.65;;;2.35;;
71888;SDS011;59762;49.998;14.858;2022-12-07T06:00:31;1.98;;;1.40;;
71888;SDS011;59762;49.998;14.858;2022-12-07T06:02:57;1.00;;;0.90;;
71888;SDS011;59762;49.998;14.858;2022-12-07T06:05:23;2.33;;;1.27;;
71888;SDS011;59762;49.998;14.858;2022-12-07T06:07:49;4.88;;;2.80;;
71888;SDS011;59762;49.998;14.858;2022-12-07T06:10:15;4.50;;;3.50;;
71888;SDS011;59762;49.998;14.858;2022-12-07T06:12:40;1.67;;;1.38;;
71888;SDS011;59762;49.998;14.858;2022-12-07T06:15:09;2.28;;;1.67;;
71888;SDS011;59762;49.998;14.858;2022-12-07T06:17:36;5.80;;;1.17;;
71888;SDS011;59762;49.998;14.858;2022-12-07T06:20:02;3.72;;;1.63;;
71888;SDS011;59762;49.998;14.858;2022-12-07T06:22:28;3.05;;;1.60;;
71888;SDS011;59762;49.998;14.858;2022-12-07T06:24:54;1.83;;;1.38;;
71888;SDS011;59762;49.998;14.858;2022-12-07T06:27:20;1.58;;;1.40;;
71888;SDS011;59762;49.998;14.858;2022-12-07T06:29:45;1.08;;;1.08;;
71888;SDS011;59762;49.998;14.858;2022-12-07T06:32:11;3.08;;;1.15;;
71888;SDS011;59762;49.998;14.858;2022-12-07T06:34:37;1.25;;;1.15;;
71888;SDS011;59762;49.998;14.858;2022-12-07T06:37:03;3.53;;;2.05;;
71888;SDS011;59762;49.998;14.858;2022-12-07T06:39:29;5.57;;;4.03;;
71888;SDS011;59762;49.998;14.858;2022-12-07T06:41:55;9.02;;;3.72;;
71888;SDS011;59762;49.998;14.858;2022-12-07T06:44:21;31.73;;;12.05;;
71888;SDS011;59762;49.998;14.858;2022-12-07T06:46:47;4.38;;;3.05;;
71888;SDS011;59762;49.998;14.858;2022-12-07T06:49:13;4.18;;;1.67;;
71888;SDS011;59762;49.998;14.858;2022-12-07T06:51:39;2.97;;;2.08;;
71888;SDS011;59762;49.998;14.858;2022-12-07T06:54:07;2.47;;;1.92;;
71888;SDS011;59762;49.998;14.858;2022-12-07T06:56:36;2.33;;;1.30;;
71888;SDS011;59762;49.998;14.858;2022-12-07T06:59:02;2.85;;;1.35;;
71888;SDS011;59762;49.998;14.858;2022-12-07T07:01:29;1.65;;;1.00;;
71888;SDS011;59762;49.998;14.858;2022-12-07T07:03:54;1.60;;;1.23;;
71888;SDS011;59762;49.998;14.858;2022-12-07T07:06:20;0.90;;;0.90;;
71888;SDS011;59762;49.998;14.858;2022-12-07T07:08:46;3.08;;;1.85;;
71888;SDS011;59762;49.998;14.858;2022-12-07T07:11:11;2.75;;;2.35;;
71888;SDS011;59762;49.998;14.858;2022-12-07T07:13:37;0.65;;;0.65;;
71888;SDS011;59762;49.998;14.858;2022-12-07T07:16:02;2.40;;;1.60;;
71888;SDS011;59762;49.998;14.858;2022-12-07T07:18:29;1.98;;;1.65;;
71888;SDS011;59762;49.998;14.858;2022-12-07T07:20:54;2.60;;;2.08;;
71888;SDS011;59762;49.998;14.858;2022-12-07T07:23:20;0.98;;;0.88;;
71888;SDS011;59762;49.998;14.858;2022-12-07T07:25:47;2.38;;;2.08;;
71888;SDS011;59762;49.998;14.858;2022-12-07T07:28:13;1.05;;;0.95;;
71888;SDS011;59762;49.998;14.858;2022-12-07T07:30:39;7.82;;;2.30;;
71888;SDS011;59762;49.998;14.858;2022-12-07T07:33:05;1.85;;;0.90;;
71888;SDS011;59762;49.998;14.858;2022-12-07T07:35:32;0.80;;;0.80;;
71888;SDS011;59762;49.998;14.858;2022-12-07T07:37:59;1.55;;;1.25;;
71888;SDS011;59762;49.998;14.858;2022-12-07T07:40:25;1.38;;;1.27;;
71888;SDS011;59762;49.998;14.858;2022-12-07T07:42:52;1.85;;;1.27;;
71888;SDS011;59762;49.998;14.858;2022-12-07T07:45:19;3.50;;;1.48;;
71888;SDS011;59762;49.998;14.858;2022-12-07T07:47:46;1.20;;;1.15;;
71888;SDS011;59762;49.998;14.858;2022-12-07T07:50:12;3.47;;;2.05;;
71888;SDS011;59762;49.998;14.858;2022-12-07T07:52:38;0.75;;;0.75;;
71888;SDS011;59762;49.998;14.858;2022-12-07T07:55:04;1.65;;;1.13;;
71888;SDS011;59762;49.998;14.858;2022-12-07T07:57:31;1.02;;;0.93;;
71888;SDS011;59762;49.998;14.858;2022-12-07T07:59:56;1.10;;;0.90;;
71888;SDS011;59762;49.998;14.858;2022-12-07T08:02:22;1.88;;;1.77;;
71888;SDS011;59762;49.998;14.858;2022-12-07T08:04:48;5.35;;;3.10;;
71888;SDS011;59762;49.998;14.858;2022-12-07T08:07:14;4.45;;;3.20;;
71888;SDS011;59762;49.998;14.858;2022-12-07T08:09:40;2.03;;;1.23;;
71888;SDS011;59762;49.998;14.858;2022-12-07T08:12:06;1.08;;;0.85;;
71888;SDS011;59762;49.998;14.858;2022-12-07T08:14:32;6.25;;;1.92;;
71888;SDS011;59762;49.998;14.858;2022-12-07T08:16:58;4.75;;;2.25;;
71888;SDS011;59762;49.998;14.858;2022-12-07T08:19:23;1.38;;;1.27;;
71888;SDS011;59762;49.998;14.858;2022-12-07T08:21:49;1.33;;;1.23;;
71888;SDS011;59762;49.998;14.858;2022-12-07T08:24:15;2.30;;;1.95;;
71888;SDS011;59762;49.998;14.858;2022-12-07T08:26:41;4.45;;;1.80;;
71888;SDS011;59762;49.998;14.858;2022-12-07T08:29:07;3.47;;;1.67;;
71888;SDS011;59762;49.998;14.858;2022-12-07T08:31:33;7.82;;;3.42;;
71888;SDS011;59762;49.998;14.858;2022-12-07T08:33:59;23.90;;;7.57;;
71888;SDS011;59762;49.998;14.858;2022-12-07T08:36:24;5.72;;;3.85;;
71888;SDS011;59762;49.998;14.858;2022-12-07T08:38:50;13.52;;;5.43;;
71888;SDS011;59762;49.998;14.858;2022-12-07T08:41:16;8.05;;;3.85;;
71888;SDS011;59762;49.998;14.858;2022-12-07T08:43:41;4.57;;;2.58;;
71888;SDS011;59762;49.998;14.858;2022-12-07T08:48:55;2.42;;;2.10;;
71888;SDS011;59762;49.998;14.858;2022-12-07T08:51:26;6.88;;;1.90;;
71888;SDS011;59762;49.998;14.858;2022-12-07T08:53:52;2.63;;;2.03;;
71888;SDS011;59762;49.998;14.858;2022-12-07T08:56:19;2.58;;;2.25;;
71888;SDS011;59762;49.998;14.858;2022-12-07T08:58:46;2.50;;;1.30;;
71888;SDS011;59762;49.998;14.858;2022-12-07T09:01:12;1.75;;;1.15;;
71888;SDS011;59762;49.998;14.858;2022-12-07T09:03:38;0.85;;;0.55;;
71888;SDS011;59762;49.998;14.858;2022-12-07T09:06:04;3.00;;;1.23;;
71888;SDS011;59762;49.998;14.858;2022-12-07T09:08:31;3.20;;;2.13;;
71888;SDS011;59762;49.998;14.858;2022-12-07T09:11:00;2.30;;;1.73;;
71888;SDS011;59762;49.998;14.858;2022-12-07T09:13:25;1.13;;;0.95;;
71888;SDS011;59762;49.998;14.858;2022-12-07T09:15:51;1.05;;;0.95;;
71888;SDS011;59762;49.998;14.858;2022-12-07T09:18:17;1.80;;;1.10;;
71888;SDS011;59762;49.998;14.858;2022-12-07T09:20:43;9.38;;;3.85;;
71888;SDS011;59762;49.998;14.858;2022-12-07T09:23:08;4.32;;;2.42;;
71888;SDS011;59762;49.998;14.858;2022-12-07T09:25:34;3.45;;;1.70;;
71888;SDS011;59762;49.998;14.858;2022-12-07T09:28:00;3.30;;;2.75;;
71888;SDS011;59762;49.998;14.858;2022-12-07T09:30:26;3.33;;;2.53;;
71888;SDS011;59762;49.998;14.858;2022-12-07T09:32:56;2.88;;;2.13;;
71888;SDS011;59762;49.998;14.858;2022-12-07T09:35:22;3.60;;;2.05;;
71888;SDS011;59762;49.998;14.858;2022-12-07T09:37:49;2.10;;;1.90;;
71888;SDS011;59762;49.998;14.858;2022-12-07T09:40:15;2.17;;;2.08;;
71888;SDS011;59762;49.998;14.858;2022-12-07T09:42:44;1.27;;;1.10;;
71888;SDS011;59762;49.998;14.858;2022-12-07T09:45:17;1.42;;;1.33;;
71888;SDS011;59762;49.998;14.858;2022-12-07T09:47:46;3.15;;;1.08;;
71888;SDS011;59762;49.998;14.858;2022-12-07T09:50:13;0.77;;;0.77;;
71888;SDS011;59762;49.998;14.858;2022-12-07T09:52:42;1.95;;;1.70;;
71888;SDS011;59762;49.998;14.858;2022-12-07T09:55:12;2.58;;;2.22;;
71888;SDS011;59762;49.998;14.858;2022-12-07T09:57:39;6.22;;;3.28;;
71888;SDS011;59762;49.998;14.858;2022-12-07T10:00:10;4.72;;;3.42;;
71888;SDS011;59762;49.998;14.858;2022-12-07T10:02:39;5.47;;;3.53;;
71888;SDS011;59762;49.998;14.858;2022-12-07T10:05:14;2.50;;;2.30;;
71888;SDS011;59762;49.998;14.858;2022-12-07T10:07:41;5.15;;;3.95;;
71888;SDS011;59762;49.998;14.858;2022-12-07T10:10:13;5.03;;;3.17;;
71888;SDS011;59762;49.998;14.858;2022-12-07T10:12:57;8.65;;;4.32;;
71888;SDS011;59762;49.998;14.858;2022-12-07T10:18:26;6.97;;;4.05;;
71888;SDS011;59762;49.998;14.858;2022-12-07T10:21:04;3.90;;;1.80;;
71888;SDS011;59762;49.998;14.858;2022-12-07T10:23:36;8.70;;;4.63;;
71888;SDS011;59762;49.998;14.858;2022-12-07T10:26:20;16.42;;;6.32;;
71888;SDS011;59762;49.998;14.858;2022-12-07T10:28:53;15.77;;;8.80;;
71888;SDS011;59762;49.998;14.858;2022-12-07T10:31:21;1.80;;;1.67;;
71888;SDS011;59762;49.998;14.858;2022-12-07T10:33:52;3.30;;;1.95;;
71888;SDS011;59762;49.998;14.858;2022-12-07T10:36:21;0.73;;;0.73;;
71888;SDS011;59762;49.998;14.858;2022-12-07T10:39:14;8.27;;;2.22;;
71888;SDS011;59762;49.998;14.858;2022-12-07T10:42:00;7.97;;;6.07;;
71888;SDS011;59762;49.998;14.858;2022-12-07T10:44:28;20.77;;;9.63;;
71888;SDS011;59762;49.998;14.858;2022-12-07T11:03:53;6.82;;;5.65;;
71888;SDS011;59762;49.998;14.858;2022-12-07T11:06:34;2.85;;;1.65;;
71888;SDS011;59762;49.998;14.858;2022-12-07T11:11:52;5.75;;;2.28;;
71888;SDS011;59762;49.998;14.858;2022-12-07T11:14:32;2.15;;;2.03;;
71888;SDS011;59762;49.998;14.858;2022-12-07T11:27:55;4.63;;;2.35;;
71888;SDS011;59762;49.998;14.858;2022-12-07T11:30:34;1.80;;;1.30;;
71888;SDS011;59762;49.998;14.858;2022-12-07T11:33:56;3.92;;;3.50;;
71888;SDS011;59762;49.998;14.858;2022-12-07T11:39:09;0.93;;;0.68;;
71888;SDS011;59762;49.998;14.858;2022-12-07T11:41:51;1.48;;;1.20;;
71888;SDS011;59762;49.998;14.858;2022-12-07T11:46:59;3.25;;;2.65;;
71888;SDS011;59762;49.998;14.858;2022-12-07T11:49:47;1.60;;;1.50;;
71888;SDS011;59762;49.998;14.858;2022-12-07T11:52:42;2.25;;;1.77;;
71888;SDS011;59762;49.998;14.858;2022-12-07T11:55:17;1.90;;;1.60;;
71888;SDS011;59762;49.998;14.858;2022-12-07T11:57:51;1.88;;;1.60;;
71888;SDS011;59762;49.998;14.858;2022-12-07T12:00:24;3.17;;;2.95;;
71888;SDS011;59762;49.998;14.858;2022-12-07T12:05:38;2.72;;;1.65;;
71888;SDS011;59762;49.998;14.858;2022-12-07T12:13:55;3.03;;;1.77;;
71888;SDS011;59762;49.998;14.858;2022-12-07T12:22:14;4.72;;;2.13;;
71888;SDS011;59762;49.998;14.858;2022-12-07T12:24:44;2.70;;;2.17;;
71888;SDS011;59762;49.998;14.858;2022-12-07T12:29:59;3.60;;;2.13;;
71888;SDS011;59762;49.998;14.858;2022-12-07T12:32:39;2.53;;;1.67;;
71888;SDS011;59762;49.998;14.858;2022-12-07T12:35:21;2.28;;;1.80;;
71888;SDS011;59762;49.998;14.858;2022-12-07T12:37:57;2.03;;;1.92;;
71888;SDS011;59762;49.998;14.858;2022-12-07T12:40:59;2.25;;;1.50;;
71888;SDS011;59762;49.998;14.858;2022-12-07T12:43:45;6.88;;;2.15;;
71888;SDS011;59762;49.998;14.858;2022-12-07T12:48:57;1.92;;;1.42;;
71888;SDS011;59762;49.998;14.858;2022-12-07T12:57:23;8.88;;;3.92;;
71888;SDS011;59762;49.998;14.858;2022-12-07T13:02:31;1.85;;;1.65;;
71888;SDS011;59762;49.998;14.858;2022-12-07T13:18:01;1.63;;;1.50;;
71888;SDS011;59762;49.998;14.858;2022-12-07T13:20:39;5.95;;;2.05;;
71888;SDS011;59762;49.998;14.858;2022-12-07T13:23:09;1.75;;;1.60;;
71888;SDS011;59762;49.998;14.858;2022-12-07T13:25:36;1.55;;;1.45;;
71888;SDS011;59762;49.998;14.858;2022-12-07T13:30:46;2.45;;;1.85;;
71888;SDS011;59762;49.998;14.858;2022-12-07T13:33:19;7.05;;;1.77;;
71888;SDS011;59762;49.998;14.858;2022-12-07T13:35:45;2.20;;;1.95;;
71888;SDS011;59762;49.998;14.858;2022-12-07T13:38:25;1.17;;;1.10;;
71888;SDS011;59762;49.998;14.858;2022-12-07T13:41:12;3.13;;;2.15;;
71888;SDS011;59762;49.998;14.858;2022-12-07T13:43:43;2.92;;;1.88;;
71888;SDS011;59762;49.998;14.858;2022-12-07T13:46:10;2.92;;;1.63;;
71888;SDS011;59762;49.998;14.858;2022-12-07T13:48:46;1.23;;;1.13;;
71888;SDS011;59762;49.998;14.858;2022-12-07T13:51:46;2.83;;;1.85;;
71888;SDS011;59762;49.998;14.858;2022-12-07T13:54:09;9.60;;;2.47;;
71888;SDS011;59762;49.998;14.858;2022-12-07T13:56:36;1.75;;;1.42;;
71888;SDS011;59762;49.998;14.858;2022-12-07T13:59:05;8.68;;;2.70;;
71888;SDS011;59762;49.998;14.858;2022-12-07T14:01:38;20.20;;;7.30;;
71888;SDS011;59762;49.998;14.858;2022-12-07T14:07:18;9.00;;;6.82;;
71888;SDS011;59762;49.998;14.858;2022-12-07T14:09:57;9.88;;;6.22;;
71888;SDS011;59762;49.998;14.858;2022-12-07T14:12:25;14.40;;;4.10;;
71888;SDS011;59762;49.998;14.858;2022-12-07T14:14:52;8.55;;;4.32;;
71888;SDS011;59762;49.998;14.858;2022-12-07T14:17:20;7.03;;;3.10;;
71888;SDS011;59762;49.998;14.858;2022-12-07T14:19:49;7.03;;;4.13;;
71888;SDS011;59762;49.998;14.858;2022-12-07T14:24:46;2.67;;;2.05;;
71888;SDS011;59762;49.998;14.858;2022-12-07T14:27:18;11.48;;;3.13;;
71888;SDS011;59762;49.998;14.858;2022-12-07T14:29:51;1.92;;;1.30;;
71888;SDS011;59762;49.998;14.858;2022-12-07T14:32:26;6.53;;;3.55;;
71888;SDS011;59762;49.998;14.858;2022-12-07T14:35:13;3.28;;;2.70;;
71888;SDS011;59762;49.998;14.858;2022-12-07T14:37:40;6.78;;;2.25;;
71888;SDS011;59762;49.998;14.858;2022-12-07T14:40:07;2.88;;;2.60;;
71888;SDS011;59762;49.998;14.858;2022-12-07T14:42:37;5.82;;;1.40;;
71888;SDS011;59762;49.998;14.858;2022-12-07T14:45:05;2.88;;;2.67;;
71888;SDS011;59762;49.998;14.858;2022-12-07T14:47:31;4.25;;;2.08;;
71888;SDS011;59762;49.998;14.858;2022-12-07T14:49:57;14.77;;;7.15;;
71888;SDS011;59762;49.998;14.858;2022-12-07T14:52:23;2.22;;;1.45;;
71888;SDS011;59762;49.998;14.858;2022-12-07T14:54:53;4.93;;;1.73;;
71888;SDS011;59762;49.998;14.858;2022-12-07T14:57:19;7.60;;;3.33;;
71888;SDS011;59762;49.998;14.858;2022-12-07T14:59:45;2.17;;;1.98;;
71888;SDS011;59762;49.998;14.858;2022-12-07T15:02:14;3.40;;;2.58;;
71888;SDS011;59762;49.998;14.858;2022-12-07T15:04:42;2.53;;;2.33;;
71888;SDS011;59762;49.998;14.858;2022-12-07T15:07:14;5.55;;;2.22;;
71888;SDS011;59762;49.998;14.858;2022-12-07T15:09:44;2.10;;;1.27;;
71888;SDS011;59762;49.998;14.858;2022-12-07T15:12:09;1.65;;;1.15;;
71888;SDS011;59762;49.998;14.858;2022-12-07T15:14:35;2.72;;;1.65;;
71888;SDS011;59762;49.998;14.858;2022-12-07T15:17:00;2.80;;;2.10;;
71888;SDS011;59762;49.998;14.858;2022-12-07T15:19:26;6.32;;;3.20;;
71888;SDS011;59762;49.998;14.858;2022-12-07T15:21:52;4.30;;;1.85;;
71888;SDS011;59762;49.998;14.858;2022-12-07T15:24:18;4.88;;;2.55;;
71888;SDS011;59762;49.998;14.858;2022-12-07T15:26:44;5.65;;;1.98;;
71888;SDS011;59762;49.998;14.858;2022-12-07T15:29:10;5.40;;;3.80;;
71888;SDS011;59762;49.998;14.858;2022-12-07T15:31:36;7.43;;;4.93;;
71888;SDS011;59762;49.998;14.858;2022-12-07T15:34:03;3.85;;;3.42;;
71888;SDS011;59762;49.998;14.858;2022-12-07T15:36:30;7.43;;;2.88;;
71888;SDS011;59762;49.998;14.858;2022-12-07T15:38:57;3.95;;;2.75;;
71888;SDS011;59762;49.998;14.858;2022-12-07T15:41:23;6.85;;;4.15;;
71888;SDS011;59762;49.998;14.858;2022-12-07T15:43:49;12.02;;;6.13;;
71888;SDS011;59762;49.998;14.858;2022-12-07T15:46:35;24.77;;;11.88;;
71888;SDS011;59762;49.998;14.858;2022-12-07T15:49:03;21.13;;;8.15;;
71888;SDS011;59762;49.998;14.858;2022-12-07T15:51:31;21.40;;;8.85;;
71888;SDS011;59762;49.998;14.858;2022-12-07T15:53:57;13.90;;;5.05;;
71888;SDS011;59762;49.998;14.858;2022-12-07T15:56:23;5.82;;;4.38;;
71888;SDS011;59762;49.998;14.858;2022-12-07T15:58:48;4.82;;;3.38;;
71888;SDS011;59762;49.998;14.858;2022-12-07T16:01:15;8.32;;;5.53;;
71888;SDS011;59762;49.998;14.858;2022-12-07T16:03:43;14.30;;;4.88;;
71888;SDS011;59762;49.998;14.858;2022-12-07T16:06:09;4.32;;;3.92;;
71888;SDS011;59762;49.998;14.858;2022-12-07T16:08:35;7.55;;;2.65;;
71888;SDS011;59762;49.998;14.858;2022-12-07T16:11:04;10.32;;;4.40;;
71888;SDS011;59762;49.998;14.858;2022-12-07T16:13:31;6.25;;;3.58;;
71888;SDS011;59762;49.998;14.858;2022-12-07T16:15:57;3.10;;;2.58;;
71888;SDS011;59762;49.998;14.858;2022-12-07T16:18:23;3.90;;;2.55;;
71888;SDS011;59762;49.998;14.858;2022-12-07T16:20:48;11.85;;;3.05;;
71888;SDS011;59762;49.998;14.858;2022-12-07T16:23:14;12.38;;;8.05;;
71888;SDS011;59762;49.998;14.858;2022-12-07T16:25:40;6.00;;;4.45;;
71888;SDS011;59762;49.998;14.858;2022-12-07T16:28:07;9.07;;;4.03;;
71888;SDS011;59762;49.998;14.858;2022-12-07T16:30:33;5.07;;;3.58;;
71888;SDS011;59762;49.998;14.858;2022-12-07T16:32:59;13.43;;;7.40;;
71888;SDS011;59762;49.998;14.858;2022-12-07T16:35:24;7.90;;;5.63;;
71888;SDS011;59762;49.998;14.858;2022-12-07T16:37:50;9.77;;;5.88;;
71888;SDS011;59762;49.998;14.858;2022-12-07T16:40:16;32.10;;;16.42;;
71888;SDS011;59762;49.998;14.858;2022-12-07T16:42:41;12.10;;;5.95;;
71888;SDS011;59762;49.998;14.858;2022-12-07T16:45:07;20.38;;;9.80;;
71888;SDS011;59762;49.998;14.858;2022-12-07T16:47:36;11.40;;;6.13;;
71888;SDS011;59762;49.998;14.858;2022-12-07T16:50:02;2.78;;;2.20;;
71888;SDS011;59762;49.998;14.858;2022-12-07T16:52:28;8.20;;;6.40;;
71888;SDS011;59762;49.998;14.858;2022-12-07T16:54:54;7.05;;;5.32;;
71888;SDS011;59762;49.998;14.858;2022-12-07T16:57:20;6.13;;;4.22;;
71888;SDS011;59762;49.998;14.858;2022-12-07T16:59:45;9.85;;;6.43;;